Time;durP1;ratioP1;P1;durP2;ratioP2;P2;SDS_P1;SDS_P2;PMS_P1;PMS_P2;Temp;Humidity;BMP_temperature;BMP_pressure;BME280_temperature;BME280_humidity;BME280_pressure;Samples;Min_cycle;Max_cycle;Signal;HPM_P1;HPM_P2
2023/08/20 00:00:18;;;;;;;23.80;12.15;;;21.40;99.90;;;;;;5048458;28;20037;-80
2023/08/20 00:02:46;;;;;;;20.50;12.25;;;21.40;99.90;;;;;;5031637;28;20018;-79
2023/08/20 00:05:13;;;;;;;19.20;12.48;;;21.50;99.90;;;;;;5031926;28;20446;-79
2023/08/20 00:07:40;;;;;;;17.83;13.32;;;21.40;99.90;;;;;;5031855;28;20025;-79
2023/08/20 00:10:07;;;;;;;14.90;9.85;;;21.40;99.90;;;;;;5044533;28;20022;-79
2023/08/20 00:12:32;;;;;;;15.25;10.05;;;21.40;99.90;;;;;;5012075;28;20026;-79
2023/08/20 00:15:05;;;;;;;21.75;10.80;;;21.30;99.90;;;;;;5010967;28;20029;-79
2023/08/20 00:17:36;;;;;;;22.05;11.80;;;21.30;99.90;;;;;;5011918;28;20032;-79
2023/08/20 00:20:12;;;;;;;16.02;12.07;;;21.30;99.90;;;;;;5012843;28;20395;-80
2023/08/20 00:22:43;;;;;;;15.05;11.32;;;21.30;99.90;;;;;;5013244;28;20025;-79
2023/08/20 00:25:09;;;;;;;13.82;10.80;;;21.20;99.90;;;;;;5012950;28;20460;-79
2023/08/20 00:27:35;;;;;;;17.13;11.68;;;21.20;99.90;;;;;;5011281;28;20034;-79
2023/08/20 00:30:01;;;;;;;16.63;10.00;;;21.20;99.90;;;;;;5012505;28;20377;-79
2023/08/20 00:32:27;;;;;;;16.67;9.43;;;21.20;99.90;;;;;;5011572;28;20033;-79
2023/08/20 00:34:52;;;;;;;14.63;9.55;;;21.10;99.90;;;;;;5011556;28;20061;-79
2023/08/20 00:37:18;;;;;;;18.50;9.40;;;21.10;99.90;;;;;;5013137;28;20026;-79
2023/08/20 00:39:44;;;;;;;12.52;9.00;;;21.00;99.90;;;;;;5012944;28;20033;-79
2023/08/20 00:42:10;;;;;;;14.45;9.25;;;21.10;99.90;;;;;;5011801;28;20014;-81
2023/08/20 00:44:35;;;;;;;15.18;9.25;;;21.10;99.90;;;;;;5019690;28;20037;-80
2023/08/20 00:47:04;;;;;;;14.50;8.82;;;21.10;99.90;;;;;;5031609;28;20510;-80
2023/08/20 00:49:31;;;;;;;16.63;8.77;;;21.10;99.90;;;;;;5047932;28;20021;-79
2023/08/20 00:51:58;;;;;;;16.52;9.00;;;21.10;99.90;;;;;;5031392;28;20014;-79
2023/08/20 00:54:25;;;;;;;11.40;8.60;;;21.00;99.90;;;;;;5031141;28;20033;-79
2023/08/20 00:56:51;;;;;;;11.82;9.02;;;21.00;99.90;;;;;;5031445;28;20095;-79
2023/08/20 00:59:17;;;;;;;16.35;9.10;;;21.00;99.90;;;;;;5031298;28;20072;-80
2023/08/20 01:01:44;;;;;;;13.63;9.07;;;21.00;99.90;;;;;;5032974;28;20509;-79
2023/08/20 01:04:09;;;;;;;14.75;9.93;;;21.00;99.90;;;;;;5031314;28;20033;-79
2023/08/20 01:06:49;;;;;;;15.90;10.20;;;21.10;99.90;;;;;;5032863;28;20017;-80
2023/08/20 01:09:31;;;;;;;15.18;9.63;;;21.10;99.90;;;;;;5031634;28;20041;-80
2023/08/20 01:12:00;;;;;;;12.05;8.95;;;21.10;99.90;;;;;;5031578;28;20030;-79
2023/08/20 01:14:26;;;;;;;18.90;9.27;;;21.10;99.90;;;;;;5031357;28;20021;-80
2023/08/20 01:16:52;;;;;;;12.10;7.97;;;21.00;99.90;;;;;;5031306;28;20040;-79
2023/08/20 01:19:20;;;;;;;10.73;9.30;;;21.10;99.90;;;;;;5031545;28;20017;-79
2023/08/20 01:21:52;;;;;;;14.77;10.68;;;21.00;99.90;;;;;;5031399;28;20017;-80
2023/08/20 01:24:29;;;;;;;;;;;21.00;99.90;;;;;;5031928;28;20025;-79
2023/08/20 01:27:16;;;;;;;12.40;8.38;;;21.00;99.90;;;;;;5035543;28;19908;-79
2023/08/20 01:29:42;;;;;;;14.60;9.20;;;21.10;99.90;;;;;;5036337;28;20030;-79
2023/08/20 01:32:09;;;;;;;13.23;8.55;;;21.10;99.90;;;;;;5035271;28;20022;-79
2023/08/20 01:34:35;;;;;;;9.85;7.35;;;21.10;99.90;;;;;;5034926;28;20029;-79
2023/08/20 01:37:00;;;;;;;13.75;7.97;;;21.00;99.90;;;;;;5036251;28;20025;-79
2023/08/20 01:39:27;;;;;;;11.52;8.60;;;21.00;99.90;;;;;;5034887;28;20034;-79
2023/08/20 01:41:52;;;;;;;12.80;8.95;;;21.00;99.90;;;;;;5036246;28;20029;-80
2023/08/20 01:44:18;;;;;;;15.00;8.43;;;20.90;99.90;;;;;;5034862;28;20506;-80
2023/08/20 01:46:44;;;;;;;15.38;9.20;;;20.80;99.90;;;;;;5034753;28;20172;-80
2023/08/20 01:49:09;;;;;;;12.75;8.40;;;20.80;99.90;;;;;;5035070;28;20463;-80
2023/08/20 01:51:36;;;;;;;13.07;8.30;;;20.90;99.90;;;;;;5034817;28;20032;-79
2023/08/20 01:54:02;;;;;;;11.88;9.18;;;20.90;99.90;;;;;;5034664;28;20100;-79
2023/08/20 01:56:28;;;;;;;15.95;9.32;;;21.00;99.90;;;;;;5034330;28;20148;-79
2023/08/20 01:58:53;;;;;;;12.40;9.48;;;21.00;99.90;;;;;;5034621;28;20498;-79
2023/08/20 02:01:19;;;;;;;9.98;8.27;;;21.00;99.90;;;;;;5034426;28;20029;-80
2023/08/20 02:03:45;;;;;;;12.30;8.23;;;21.00;99.90;;;;;;5034542;28;20022;-80
2023/08/20 02:06:11;;;;;;;11.02;8.23;;;21.10;99.90;;;;;;5034250;28;20025;-79
2023/08/20 02:08:36;;;;;;;12.98;10.02;;;21.00;99.90;;;;;;5034609;28;20036;-79
2023/08/20 02:11:03;;;;;;;14.13;9.00;;;21.00;99.90;;;;;;5034340;28;20032;-80
2023/08/20 02:13:30;;;;;;;14.27;9.50;;;21.00;99.90;;;;;;5034510;28;20021;-79
2023/08/20 02:16:04;;;;;;;16.25;10.20;;;21.00;99.90;;;;;;5035410;28;20080;-79
2023/08/20 02:18:30;;;;;;;12.15;10.13;;;21.00;99.90;;;;;;5050986;28;20029;-79
2023/08/20 02:20:56;;;;;;;15.57;10.88;;;21.00;99.90;;;;;;5035258;28;20028;-79
2023/08/20 02:23:23;;;;;;;20.90;10.38;;;21.00;99.90;;;;;;5035479;28;20097;-79
2023/08/20 02:25:49;;;;;;;11.75;10.32;;;21.10;99.90;;;;;;5034112;28;20429;-79
2023/08/20 02:28:15;;;;;;;13.77;9.77;;;21.10;99.90;;;;;;5033966;28;20022;-80
2023/08/20 02:30:45;;;;;;;16.08;9.70;;;21.10;99.90;;;;;;5033847;28;20057;-80
2023/08/20 02:33:11;;;;;;;13.75;10.63;;;21.10;99.90;;;;;;5033757;28;20060;-80
2023/08/20 02:35:38;;;;;;;13.45;9.80;;;21.10;99.90;;;;;;5035284;28;20021;-80
2023/08/20 02:38:04;;;;;;;14.20;9.63;;;21.10;99.90;;;;;;5032691;28;20071;-80
2023/08/20 02:40:31;;;;;;;14.00;10.65;;;21.10;99.90;;;;;;5033601;28;20378;-79
2023/08/20 02:42:57;;;;;;;16.33;10.80;;;21.00;99.90;;;;;;5033635;28;20029;-80
2023/08/20 02:45:22;;;;;;;20.92;11.20;;;21.00;99.90;;;;;;5034188;28;20025;-79
2023/08/20 02:47:49;;;;;;;17.77;10.50;;;20.90;99.90;;;;;;5033649;28;20108;-79
2023/08/20 02:50:15;;;;;;;16.13;10.23;;;21.00;99.90;;;;;;5034907;28;20075;-79
2023/08/20 02:52:42;;;;;;;19.25;11.75;;;20.90;99.90;;;;;;5033203;28;20467;-79
2023/08/20 02:55:08;;;;;;;18.92;10.23;;;20.70;99.90;;;;;;5033708;28;20029;-79
2023/08/20 02:57:34;;;;;;;17.20;10.05;;;20.70;99.90;;;;;;5034411;28;20037;-79
2023/08/20 03:00:00;;;;;;;14.00;10.07;;;20.80;99.90;;;;;;5033272;28;20410;-79
2023/08/20 03:02:26;;;;;;;14.63;9.70;;;20.80;99.90;;;;;;5033279;28;20083;-79
2023/08/20 03:04:52;;;;;;;15.05;8.90;;;20.80;99.90;;;;;;5033450;28;20025;-79
2023/08/20 03:07:18;;;;;;;13.20;9.73;;;20.80;99.90;;;;;;5034634;28;20017;-79
2023/08/20 03:09:44;;;;;;;14.43;8.43;;;20.90;99.90;;;;;;5034380;28;20098;-79
2023/08/20 03:12:10;;;;;;;14.90;8.82;;;20.80;99.90;;;;;;5034677;28;20021;-79
2023/08/20 03:14:36;;;;;;;17.38;8.70;;;20.80;99.90;;;;;;5033098;28;20033;-80
2023/08/20 03:17:02;;;;;;;12.15;7.75;;;20.80;99.90;;;;;;5032841;28;20017;-79
2023/08/20 03:19:32;;;;;;;17.70;8.85;;;20.70;99.90;;;;;;5033020;28;20053;-79
2023/08/20 03:21:58;;;;;;;13.10;8.10;;;20.60;99.90;;;;;;5034049;28;20025;-80
2023/08/20 03:24:24;;;;;;;13.60;7.90;;;20.70;99.90;;;;;;5032657;28;20017;-80
2023/08/20 03:26:50;;;;;;;18.50;8.07;;;20.70;99.90;;;;;;5032970;28;20051;-79
2023/08/20 03:29:15;;;;;;;13.63;7.95;;;20.70;99.90;;;;;;5032516;28;20112;-79
2023/08/20 03:31:41;;;;;;;14.68;8.10;;;20.70;99.90;;;;;;5032848;28;20378;-79
2023/08/20 03:34:09;;;;;;;17.88;8.55;;;20.60;99.90;;;;;;5033638;28;20080;-80
2023/08/20 03:36:35;;;;;;;16.45;7.32;;;20.60;99.90;;;;;;5049305;28;20028;-80
2023/08/20 03:39:01;;;;;;;15.23;8.00;;;20.60;99.90;;;;;;5032539;28;20083;-79
2023/08/20 03:41:26;;;;;;;14.95;7.65;;;20.60;99.90;;;;;;5032798;28;20025;-80
2023/08/20 03:43:52;;;;;;;18.52;7.07;;;20.50;99.90;;;;;;5033727;28;20033;-79
2023/08/20 03:46:18;;;;;;;17.42;7.63;;;20.50;99.90;;;;;;5049226;28;20112;-80
2023/08/20 03:48:44;;;;;;;10.73;7.72;;;20.50;99.90;;;;;;5032101;28;20033;-79
2023/08/20 03:51:09;;;;;;;14.98;8.43;;;20.40;99.90;;;;;;5048977;28;20026;-79
2023/08/20 03:53:35;;;;;;;12.30;7.38;;;20.50;99.90;;;;;;5042864;28;20029;-80
2023/08/20 03:56:01;;;;;;;15.65;7.70;;;20.40;99.90;;;;;;5032405;28;20021;-79
2023/08/20 03:58:26;;;;;;;15.65;7.20;;;20.40;99.90;;;;;;5033139;28;20047;-79
2023/08/20 04:00:52;;;;;;;18.63;7.50;;;20.50;99.90;;;;;;5031685;28;20030;-80
2023/08/20 04:03:19;;;;;;;8.52;7.32;;;20.40;99.90;;;;;;5031768;28;20022;-79
2023/08/20 04:05:45;;;;;;;10.52;6.85;;;20.40;99.90;;;;;;5031908;28;20013;-80
2023/08/20 04:08:11;;;;;;;12.93;7.93;;;20.40;99.90;;;;;;5031788;28;20037;-79
2023/08/20 04:10:44;;;;;;;16.70;6.65;;;20.40;99.90;;;;;;5031761;28;20028;-80
2023/08/20 04:13:10;;;;;;;13.25;7.18;;;20.40;99.90;;;;;;5031908;28;20029;-80
2023/08/20 04:15:35;;;;;;;10.32;7.40;;;20.40;99.90;;;;;;5032036;28;20021;-80
2023/08/20 04:18:01;;;;;;;10.63;8.15;;;20.40;99.90;;;;;;5032012;28;20040;-79
2023/08/20 04:20:27;;;;;;;14.15;8.55;;;20.30;99.90;;;;;;5031966;28;20059;-79
2023/08/20 04:22:53;;;;;;;12.10;8.35;;;20.40;99.90;;;;;;5031653;28;20029;-79
2023/08/20 04:25:18;;;;;;;11.32;7.40;;;20.30;99.90;;;;;;5033025;28;20021;-79
2023/08/20 04:27:44;;;;;;;13.07;7.78;;;20.30;99.90;;;;;;5031672;28;20033;-80
2023/08/20 04:30:10;;;;;;;10.18;8.20;;;20.30;99.90;;;;;;5031675;28;20040;-79
2023/08/20 04:32:36;;;;;;;11.27;8.00;;;20.30;99.90;;;;;;5031760;28;20041;-79
2023/08/20 04:35:02;;;;;;;12.43;7.78;;;20.30;99.90;;;;;;5031860;28;20026;-80
2023/08/20 04:37:28;;;;;;;11.57;7.43;;;20.30;99.90;;;;;;5031676;28;20033;-79
2023/08/20 04:39:54;;;;;;;9.88;7.22;;;20.30;99.90;;;;;;5031241;28;20499;-80
2023/08/20 04:42:19;;;;;;;9.05;7.43;;;20.30;99.90;;;;;;5031743;28;20018;-79
2023/08/20 04:44:45;;;;;;;14.40;8.30;;;20.20;99.90;;;;;;5033192;28;20024;-79
2023/08/20 04:47:12;;;;;;;18.52;8.85;;;20.30;99.90;;;;;;5031736;28;20116;-79
2023/08/20 04:49:38;;;;;;;21.33;9.75;;;20.20;99.90;;;;;;5031507;28;20048;-80
2023/08/20 04:52:04;;;;;;;15.15;10.05;;;20.20;99.90;;;;;;5031627;28;20089;-80
2023/08/20 04:54:30;;;;;;;13.45;9.55;;;20.20;99.90;;;;;;5032697;28;20105;-79
2023/08/20 04:56:56;;;;;;;14.35;9.38;;;20.10;99.90;;;;;;5032578;28;20108;-80
2023/08/20 04:59:22;;;;;;;16.90;10.05;;;20.10;99.90;;;;;;5031433;28;20017;-79
2023/08/20 05:01:48;;;;;;;16.58;10.43;;;20.10;99.90;;;;;;5034376;28;20029;-79
2023/08/20 05:04:13;;;;;;;16.58;10.40;;;20.10;99.90;;;;;;5033547;28;20447;-79
2023/08/20 05:06:39;;;;;;;15.88;9.98;;;20.00;99.90;;;;;;5036462;28;20105;-80
2023/08/20 05:09:05;;;;;;;15.73;11.43;;;20.00;99.90;;;;;;5035765;28;20025;-80
2023/08/20 05:11:32;;;;;;;16.42;10.85;;;20.10;99.90;;;;;;5035535;28;20025;-80
2023/08/20 05:13:58;;;;;;;15.63;9.85;;;20.10;99.90;;;;;;5036538;28;20514;-79
2023/08/20 05:16:24;;;;;;;20.83;10.65;;;20.10;99.90;;;;;;5035283;28;20049;-79
2023/08/20 05:18:50;;;;;;;19.75;10.00;;;20.00;99.90;;;;;;5052029;28;20032;-79
2023/08/20 05:21:15;;;;;;;19.35;10.23;;;20.00;99.90;;;;;;5035007;28;20018;-79
2023/08/20 05:23:41;;;;;;;15.15;9.23;;;20.00;99.90;;;;;;5036872;28;20025;-79
2023/08/20 05:26:07;;;;;;;13.25;9.82;;;20.00;99.90;;;;;;5035067;28;20017;-80
2023/08/20 05:28:34;;;;;;;17.27;10.15;;;20.00;99.90;;;;;;5035137;28;20148;-80
2023/08/20 05:31:00;;;;;;;15.68;10.68;;;20.00;99.90;;;;;;5034604;28;20034;-80
2023/08/20 05:33:26;;;;;;;19.75;10.25;;;20.00;99.90;;;;;;5036473;28;20091;-79
2023/08/20 05:35:52;;;;;;;13.05;9.90;;;19.90;99.90;;;;;;5051019;28;20048;-81
2023/08/20 05:38:18;;;;;;;18.88;9.75;;;19.90;99.90;;;;;;5036477;28;20027;-80
2023/08/20 05:40:44;;;;;;;17.88;10.43;;;20.00;99.90;;;;;;5034834;28;20040;-79
2023/08/20 05:43:10;;;;;;;12.88;10.50;;;20.00;99.90;;;;;;5035078;28;20471;-80
2023/08/20 05:45:35;;;;;;;20.08;10.77;;;20.00;99.90;;;;;;5034132;28;20028;-79
2023/08/20 05:48:01;;;;;;;11.15;9.60;;;19.90;99.90;;;;;;5034786;28;20029;-80
2023/08/20 05:50:27;;;;;;;21.73;11.43;;;19.90;99.90;;;;;;5034667;28;20026;-79
2023/08/20 05:52:53;;;;;;;15.32;9.85;;;20.00;99.90;;;;;;5046050;28;20040;-79
2023/08/20 05:55:19;;;;;;;17.15;10.27;;;20.00;99.90;;;;;;5035536;28;20060;-79
2023/08/20 05:57:45;;;;;;;19.88;10.00;;;20.00;99.90;;;;;;5034361;28;20057;-80
2023/08/20 06:00:11;;;;;;;12.38;9.75;;;20.00;99.90;;;;;;5035219;28;20030;-80
2023/08/20 06:02:37;;;;;;;13.55;8.63;;;20.00;99.90;;;;;;5035066;28;20385;-79
2023/08/20 06:05:04;;;;;;;14.82;10.15;;;20.00;99.90;;;;;;5051741;28;20026;-80
2023/08/20 06:07:31;;;;;;;12.98;8.77;;;20.10;99.90;;;;;;5035386;28;20029;-80
2023/08/20 06:09:57;;;;;;;14.18;8.13;;;20.10;99.90;;;;;;5051395;28;20036;-80
2023/08/20 06:12:23;;;;;;;13.25;7.78;;;20.10;99.90;;;;;;5035159;28;20029;-81
2023/08/20 06:14:49;;;;;;;12.88;8.23;;;20.10;99.90;;;;;;5035253;28;20029;-80
2023/08/20 06:17:15;;;;;;;13.43;8.90;;;20.10;99.90;;;;;;5035051;28;20021;-80
2023/08/20 06:19:41;;;;;;;12.00;7.05;;;20.10;99.90;;;;;;5035452;28;20022;-80
2023/08/20 06:22:07;;;;;;;14.13;9.13;;;20.20;99.90;;;;;;5036281;28;20384;-80
2023/08/20 06:24:33;;;;;;;10.07;7.53;;;20.20;99.90;;;;;;5051617;28;20029;-80
2023/08/20 06:26:59;;;;;;;11.55;8.00;;;20.20;99.90;;;;;;5035650;28;20032;-80
2023/08/20 06:29:25;;;;;;;13.45;8.73;;;20.20;99.90;;;;;;5034834;28;20447;-80
2023/08/20 06:31:51;;;;;;;14.00;8.30;;;20.10;99.90;;;;;;5039153;28;20033;-80
2023/08/20 06:34:17;;;;;;;13.65;8.70;;;20.20;99.90;;;;;;5045454;28;20024;-80
2023/08/20 06:36:43;;;;;;;11.25;8.45;;;20.20;99.90;;;;;;5055907;28;20029;-80
2023/08/20 06:39:09;;;;;;;15.77;9.50;;;20.20;99.90;;;;;;5038587;28;20124;-80
2023/08/20 06:41:35;;;;;;;15.35;7.38;;;20.20;99.90;;;;;;5039719;28;20030;-80
2023/08/20 06:44:02;;;;;;;11.20;7.20;;;20.20;99.90;;;;;;5038921;28;20014;-80
2023/08/20 06:46:27;;;;;;;10.68;6.82;;;20.30;99.90;;;;;;5039941;28;20048;-81
2023/08/20 06:48:53;;;;;;;10.27;6.25;;;20.30;99.90;;;;;;5038488;28;20041;-80
2023/08/20 06:51:21;;;;;;;9.23;6.35;;;20.30;99.90;;;;;;5053430;28;20577;-80
2023/08/20 06:53:47;;;;;;;15.52;6.80;;;20.30;99.90;;;;;;5037499;28;20041;-80
2023/08/20 06:56:13;;;;;;;10.82;5.25;;;20.40;99.90;;;;;;5037312;28;20025;-80
2023/08/20 06:58:40;;;;;;;13.55;5.13;;;20.40;99.90;;;;;;5037052;28;20036;-79
2023/08/20 07:01:09;;;;;;;13.95;4.78;;;20.50;99.90;;;;;;5036465;28;20555;-81
2023/08/20 07:03:37;;;;;;;13.80;5.70;;;20.50;99.90;;;;;;5037843;28;20075;-80
2023/08/20 07:06:03;;;;;;;10.90;5.82;;;20.50;99.90;;;;;;5038137;28;20026;-80
2023/08/20 07:08:29;;;;;;;12.60;5.82;;;20.50;99.90;;;;;;5037671;28;20029;-80
2023/08/20 07:10:55;;;;;;;13.07;5.63;;;20.60;99.90;;;;;;5037776;28;20171;-80
2023/08/20 07:13:22;;;;;;;13.02;5.00;;;20.60;99.90;;;;;;5037518;28;20022;-80
2023/08/20 07:15:48;;;;;;;16.30;5.05;;;20.70;99.90;;;;;;5037095;28;20022;-80
2023/08/20 07:18:14;;;;;;;12.82;4.70;;;20.70;99.90;;;;;;5038238;28;20053;-79
2023/08/20 07:20:42;;;;;;;13.27;5.53;;;20.80;99.90;;;;;;5037548;28;20025;-80
2023/08/20 07:23:09;;;;;;;12.38;4.82;;;20.90;99.90;;;;;;5036044;28;20079;-80
2023/08/20 07:25:39;;;;;;;12.45;5.07;;;20.90;99.90;;;;;;5036456;28;20041;-80
2023/08/20 07:28:06;;;;;;;13.80;4.93;;;20.90;99.90;;;;;;5037270;28;20557;-80
2023/08/20 07:30:32;;;;;;;13.90;5.25;;;21.00;99.90;;;;;;5035950;28;20045;-80
2023/08/20 07:32:58;;;;;;;18.05;5.32;;;21.00;99.90;;;;;;5035887;28;20044;-79
2023/08/20 07:35:24;;;;;;;10.15;4.50;;;21.10;99.90;;;;;;5035137;28;20483;-80
2023/08/20 07:37:50;;;;;;;12.25;4.88;;;21.10;99.90;;;;;;5034059;28;20544;-80
2023/08/20 07:40:16;;;;;;;16.30;4.13;;;21.10;99.90;;;;;;5035707;28;20026;-80
2023/08/20 07:42:42;;;;;;;8.93;3.67;;;21.10;99.90;;;;;;5032381;28;20164;-79
2023/08/20 07:45:09;;;;;;;11.43;4.03;;;21.20;99.90;;;;;;5035886;28;20029;-80
2023/08/20 07:47:36;;;;;;;8.80;2.85;;;21.30;99.90;;;;;;5034292;28;20029;-79
2023/08/20 07:50:03;;;;;;;11.00;3.38;;;21.30;99.90;;;;;;5034664;28;20032;-79
2023/08/20 07:52:29;;;;;;;9.55;3.25;;;21.50;99.90;;;;;;5033229;28;20037;-79
2023/08/20 07:54:55;;;;;;;11.00;3.20;;;21.50;99.90;;;;;;5032164;28;20028;-78
2023/08/20 07:57:21;;;;;;;9.68;3.05;;;21.60;99.90;;;;;;5032442;28;20064;-78
2023/08/20 07:59:47;;;;;;;10.82;2.95;;;21.70;99.90;;;;;;5032476;28;20032;-78
2023/08/20 08:02:13;;;;;;;8.30;2.92;;;21.70;99.90;;;;;;5033633;28;20034;-78
2023/08/20 08:04:39;;;;;;;6.85;2.80;;;21.80;99.90;;;;;;5031155;28;20030;-79
2023/08/20 08:07:05;;;;;;;9.07;2.97;;;21.90;99.90;;;;;;5033988;28;20028;-78
2023/08/20 08:09:32;;;;;;;10.50;3.80;;;22.00;99.90;;;;;;5033889;28;20025;-79
2023/08/20 08:11:58;;;;;;;7.35;3.45;;;22.10;99.90;;;;;;5034206;28;20396;-79
2023/08/20 08:14:24;;;;;;;13.38;4.43;;;22.20;99.90;;;;;;5032969;28;20025;-79
2023/08/20 08:16:50;;;;;;;9.35;2.83;;;22.30;99.90;;;;;;5032805;28;20396;-78
2023/08/20 08:19:16;;;;;;;12.00;3.80;;;22.40;99.90;;;;;;5034528;28;20032;-79
2023/08/20 08:21:43;;;;;;;12.52;3.85;;;22.50;99.90;;;;;;5032819;28;20029;-79
2023/08/20 08:24:10;;;;;;;16.23;3.60;;;22.60;99.90;;;;;;5033275;28;20028;-79
2023/08/20 08:26:36;;;;;;;7.95;3.47;;;22.60;99.90;;;;;;5037559;28;20025;-79
2023/08/20 08:29:03;;;;;;;10.65;3.22;;;22.70;99.90;;;;;;5034623;28;20128;-79
2023/08/20 08:31:29;;;;;;;12.10;3.88;;;22.70;99.90;;;;;;5037402;28;20069;-79
2023/08/20 08:33:55;;;;;;;11.55;3.88;;;22.70;99.90;;;;;;5038275;28;20032;-78
2023/08/20 08:36:21;;;;;;;14.35;4.38;;;22.90;99.90;;;;;;5017406;28;20030;-79
2023/08/20 08:38:47;;;;;;;9.55;4.45;;;23.00;99.90;;;;;;5018735;28;20488;-78
2023/08/20 08:41:37;;;;;;;11.85;5.13;;;23.00;99.90;;;;;;5017397;28;20026;-80
2023/08/20 08:44:09;;;;;;;15.57;5.18;;;23.10;99.90;;;;;;5031450;28;20564;-80
2023/08/20 08:46:40;;;;;;;10.82;5.82;;;23.20;99.90;;;;;;5037774;28;20030;-78
2023/08/20 08:49:08;;;;;;;13.38;6.75;;;23.20;99.90;;;;;;5039743;28;20053;-80
2023/08/20 08:51:36;;;;;;;16.08;6.18;;;23.40;99.90;;;;;;5038204;28;20550;-80
2023/08/20 08:54:02;;;;;;;12.55;5.88;;;23.50;99.90;;;;;;5029531;28;20087;-79
2023/08/20 08:56:28;;;;;;;14.77;6.32;;;23.40;99.90;;;;;;5037411;28;20072;-81
2023/08/20 08:58:54;;;;;;;15.10;7.00;;;23.40;99.90;;;;;;5039676;28;20491;-80
2023/08/20 09:01:20;;;;;;;12.07;5.82;;;23.50;99.90;;;;;;5040540;28;20029;-80
2023/08/20 09:03:47;;;;;;;12.13;5.60;;;23.70;99.90;;;;;;5038807;28;20022;-80
2023/08/20 09:06:13;;;;;;;15.30;6.85;;;23.80;99.90;;;;;;5038535;28;20026;-80
2023/08/20 09:08:39;;;;;;;12.32;5.55;;;24.00;99.90;;;;;;5035032;28;20029;-80
2023/08/20 09:11:04;;;;;;;12.88;5.63;;;24.10;99.90;;;;;;5035829;28;20411;-80
2023/08/20 09:13:33;;;;;;;13.00;6.25;;;24.30;99.90;;;;;;5032245;28;20053;-80
2023/08/20 09:15:59;;;;;;;15.55;6.82;;;24.40;99.90;;;;;;5025581;28;20049;-80
2023/08/20 09:18:25;;;;;;;13.52;6.10;;;24.60;99.90;;;;;;5024166;28;20037;-79
2023/08/20 09:20:54;;;;;;;12.35;5.70;;;24.80;99.90;;;;;;5023444;28;20072;-79
2023/08/20 09:23:20;;;;;;;11.23;6.22;;;24.90;99.90;;;;;;5038162;28;20022;-79
2023/08/20 09:25:46;;;;;;;13.73;6.43;;;25.10;99.90;;;;;;5041535;28;20060;-78
2023/08/20 09:28:12;;;;;;;16.00;5.93;;;25.20;99.90;;;;;;5038907;28;20365;-80
2023/08/20 09:30:41;;;;;;;13.32;5.30;;;25.40;99.90;;;;;;5038432;28;20454;-80
2023/08/20 09:33:10;;;;;;;9.50;4.07;;;25.50;99.90;;;;;;5035010;28;20030;-79
2023/08/20 09:35:36;;;;;;;13.18;3.15;;;25.60;99.90;;;;;;5033104;28;20120;-79
2023/08/20 09:38:05;;;;;;;10.30;3.60;;;25.60;99.90;;;;;;5035336;28;20026;-79
2023/08/20 09:40:31;;;;;;;11.13;4.00;;;25.70;99.90;;;;;;5032808;28;20066;-78
2023/08/20 09:42:57;;;;;;;13.80;4.57;;;25.80;99.90;;;;;;5029235;28;20108;-79
2023/08/20 09:45:28;;;;;;;8.88;3.40;;;26.00;99.90;;;;;;5012061;28;20029;-79
2023/08/20 09:47:56;;;;;;;7.30;3.55;;;26.10;99.90;;;;;;5016394;28;20026;-79
2023/08/20 09:50:26;;;;;;;6.53;3.20;;;26.20;99.90;;;;;;5049360;28;20118;-79
2023/08/20 09:53:12;;;;;;;10.20;4.00;;;26.30;99.90;;;;;;5017666;28;20083;-78
2023/08/20 09:55:43;;;;;;;8.73;3.55;;;26.30;99.90;;;;;;5015777;28;20068;-79
2023/08/20 09:58:10;;;;;;;9.23;3.25;;;26.50;99.90;;;;;;5015873;28;20102;-79
2023/08/20 10:00:36;;;;;;;5.55;2.72;;;26.60;99.90;;;;;;5016749;28;20026;-79
2023/08/20 10:03:02;;;;;;;8.38;4.15;;;26.70;99.90;;;;;;5015385;28;20584;-79
2023/08/20 10:05:28;;;;;;;5.57;2.95;;;26.60;99.90;;;;;;5016312;28;20057;-78
2023/08/20 10:07:55;;;;;;;7.43;3.10;;;26.70;99.90;;;;;;5015873;28;20369;-79
2023/08/20 10:10:21;;;;;;;5.53;2.55;;;26.80;99.90;;;;;;5017544;28;20397;-79
2023/08/20 10:12:48;;;;;;;5.72;2.47;;;27.00;99.90;;;;;;5044153;28;20033;-79
2023/08/20 10:15:15;;;;;;;8.68;3.35;;;27.10;99.90;;;;;;5036867;28;20044;-79
2023/08/20 10:17:43;;;;;;;6.28;2.78;;;27.10;99.90;;;;;;5034686;28;20156;-79
2023/08/20 10:20:10;;;;;;;7.53;3.03;;;27.20;99.90;;;;;;5032973;28;20031;-79
2023/08/20 10:22:37;;;;;;;7.72;2.50;;;27.30;99.90;;;;;;5036070;28;20021;-80
2023/08/20 10:25:07;;;;;;;5.93;3.03;;;27.40;99.90;;;;;;5033454;28;20416;-79
2023/08/20 10:27:35;;;;;;;3.13;2.30;;;27.40;99.90;;;;;;5034884;28;20545;-79
2023/08/20 10:30:07;;;;;;;5.60;2.45;;;27.40;99.90;;;;;;5034610;28;20030;-79
2023/08/20 10:32:48;;;;;;;6.88;2.92;;;27.50;99.90;;;;;;5035297;28;20025;-79
2023/08/20 10:35:22;;;;;;;5.78;2.22;;;27.50;99.90;;;;;;5034559;28;20038;-79
2023/08/20 10:38:08;;;;;;;9.82;2.65;;;27.60;99.90;;;;;;5034719;28;20022;-79
2023/08/20 10:40:54;;;;;;;6.22;3.00;;;27.70;99.90;;;;;;5034556;28;20042;-78
2023/08/20 10:43:26;;;;;;;8.23;2.40;;;27.60;99.90;;;;;;5033496;28;20109;-79
2023/08/20 10:46:16;;;;;;;5.45;2.85;;;27.70;99.90;;;;;;5033625;28;20029;-79
2023/08/20 10:48:47;;;;;;;6.70;2.60;;;27.80;99.90;;;;;;5033508;28;20494;-78
2023/08/20 10:51:18;;;;;;;4.85;2.38;;;27.80;99.90;;;;;;5032799;28;20037;-78
2023/08/20 10:54:05;;;;;;;4.28;2.40;;;28.00;99.90;;;;;;5031846;28;20049;-78
2023/08/20 10:56:43;;;;;;;4.40;2.20;;;27.90;99.90;;;;;;5031736;28;20650;-77
2023/08/20 10:59:22;;;;;;;6.05;2.28;;;28.00;99.90;;;;;;5025722;28;20516;-78
2023/08/20 11:01:49;;;;;;;4.57;2.10;;;28.00;99.90;;;;;;5029746;28;20064;-77
2023/08/20 11:04:23;;;;;;;7.30;2.28;;;28.00;99.90;;;;;;5029837;28;20013;-79
2023/08/20 11:06:57;;;;;;;6.00;2.03;;;28.20;99.90;;;;;;5031401;28;20084;-78
2023/08/20 11:09:24;;;;;;;7.78;2.40;;;28.30;99.90;;;;;;5030293;28;20029;-77
2023/08/20 11:11:50;;;;;;;6.45;2.25;;;28.40;99.90;;;;;;5031035;28;20120;-78
2023/08/20 11:14:19;;;;;;;7.07;2.35;;;28.50;99.90;;;;;;5049681;28;20029;-78
2023/08/20 11:16:46;;;;;;;3.58;1.80;;;28.40;99.90;;;;;;5014950;28;20065;-78
2023/08/20 11:19:13;;;;;;;6.85;2.10;;;28.40;99.90;;;;;;5029341;28;20026;-78
2023/08/20 11:21:42;;;;;;;3.97;2.10;;;28.40;99.90;;;;;;5013200;28;20026;-77
2023/08/20 11:24:09;;;;;;;6.90;2.33;;;28.40;99.90;;;;;;5012813;28;20109;-77
2023/08/20 11:26:38;;;;;;;6.45;2.10;;;28.50;99.90;;;;;;5015615;28;20025;-77
2023/08/20 11:29:08;;;;;;;5.80;1.75;;;28.60;99.90;;;;;;5033803;28;20077;-78
2023/08/20 11:31:35;;;;;;;3.80;2.13;;;28.80;99.90;;;;;;5033936;28;20044;-78
2023/08/20 11:34:02;;;;;;;4.13;1.92;;;28.90;99.90;;;;;;5033521;28;20417;-78
2023/08/20 11:36:28;;;;;;;5.43;1.83;;;29.00;99.90;;;;;;5032505;28;20132;-78
2023/08/20 11:38:55;;;;;;;6.50;2.50;;;29.20;99.90;;;;;;5032356;28;20116;-78
2023/08/20 11:41:25;;;;;;;7.38;2.47;;;29.00;99.90;;;;;;5032609;28;20421;-78
2023/08/20 11:43:52;;;;;;;5.15;1.90;;;29.00;99.90;;;;;;5032454;28;20176;-78
2023/08/20 11:46:23;;;;;;;5.43;2.53;;;29.00;99.90;;;;;;5032700;28;20498;-79
2023/08/20 11:49:09;;;;;;;3.42;1.80;;;29.10;99.90;;;;;;5032082;28;20025;-79
2023/08/20 11:51:42;;;;;;;5.85;2.13;;;29.10;99.90;;;;;;5032486;28;20035;-78
2023/08/20 11:54:13;;;;;;;7.60;2.08;;;29.30;99.90;;;;;;5033561;28;20017;-78
2023/08/20 11:56:50;;;;;;;3.13;1.52;;;29.30;99.90;;;;;;5032102;28;20102;-78
2023/08/20 11:59:19;;;;;;;4.72;1.95;;;29.20;99.90;;;;;;5032242;28;20030;-78
2023/08/20 12:01:51;;;;;;;3.22;1.42;;;29.20;99.90;;;;;;5032159;28;20040;-78
2023/08/20 12:04:17;;;;;;;3.70;1.73;;;29.20;99.90;;;;;;5032167;28;20028;-77
2023/08/20 12:06:43;;;;;;;9.38;1.88;;;29.30;99.90;;;;;;5031977;28;20021;-78
2023/08/20 12:09:23;;;;;;;5.63;1.80;;;29.40;99.90;;;;;;5031870;28;20021;-78
2023/08/20 12:12:00;;;;;;;5.30;1.60;;;29.50;99.90;;;;;;5032985;28;20535;-77
2023/08/20 12:14:29;;;;;;;6.45;1.45;;;29.50;99.90;;;;;;5034232;28;20026;-78
2023/08/20 12:16:56;;;;;;;6.18;1.80;;;29.50;99.90;;;;;;5051196;28;20033;-77
2023/08/20 12:19:22;;;;;;;4.55;1.52;;;29.40;99.90;;;;;;5033462;28;20029;-79
2023/08/20 12:21:49;;;;;;;31.23;3.47;;;29.40;99.90;;;;;;5035116;28;20079;-79
2023/08/20 12:24:15;;;;;;;6.32;1.52;;;29.30;99.90;;;;;;5035767;28;20045;-78
2023/08/20 12:26:41;;;;;;;4.22;1.60;;;29.40;99.90;;;;;;5033212;28;20025;-79
2023/08/20 12:29:07;;;;;;;4.50;1.30;;;29.30;99.90;;;;;;5032734;28;20483;-77
2023/08/20 12:31:33;;;;;;;4.88;1.35;;;29.30;99.90;;;;;;5032523;28;20095;-77
2023/08/20 12:34:00;;;;;;;3.67;1.30;;;29.40;99.90;;;;;;5034111;28;20032;-79
2023/08/20 12:36:26;;;;;;;4.72;1.65;;;29.60;99.90;;;;;;5033753;28;20017;-78
2023/08/20 12:38:52;;;;;;;8.52;1.88;;;29.70;99.90;;;;;;5034174;28;20041;-77